D/T METAR WX W/DIR W/SPE G/SPE TEMP DEWP
16/01/19 03:00 EIDW 160300Z 22011G21KT 190V260 9999 -RA SCT015 BKN020 09/06 Q1002 NOSIG -RA SW (220°) 12.7mph 24.2mph 9°C 6°C
16/01/19 02:30 EIDW 160230Z 22011KT 180V250 9999 FEW015 BKN045 09/06 Q1002 NOSIG SW (220°) 12.7mph 9°C 6°C
16/01/19 02:00 EIDW 160200Z 22010KT 190V260 9999 FEW015 SCT220 08/06 Q1002 NOSIG SW (220°) 11.5mph 8°C 6°C
16/01/19 01:30 EIDW 160130Z 22009KT 190V250 9999 FEW012 SCT220 08/06 Q1003 NOSIG SW (220°) 10.4mph 8°C 6°C
16/01/19 01:00 EIDW 160100Z 22013KT 190V250 9999 FEW012 BKN220 09/07 Q1003 NOSIG SW (220°) 15.0mph 9°C 7°C
16/01/19 00:30 EIDW 160030Z 21010KT 190V250 9999 FEW010 SCT018 BKN045 08/07 Q1004 NOSIG SSW (210°) 11.5mph 8°C 7°C
16/01/19 00:00 EIDW 160000Z 22009KT 190V260 9999 FEW010 SCT018 BKN045 09/06 Q1005 NOSIG SW (220°) 10.4mph 9°C 6°C
15/01/19 23:30 EIDW 152330Z 21013G24KT 180V260 9999 FEW015 SCT020 BKN045 09/06 Q1005 NOSIG SSW (210°) 15.0mph 27.6mph 9°C 6°C
15/01/19 23:00 EIDW 152300Z 22012KT 190V250 9999 -DZ FEW015 SCT020 BKN040 09/06 Q1005 NOSIG -DZ SW (220°) 13.8mph 9°C 6°C
15/01/19 22:30 EIDW 152230Z 22012KT 180V260 9999 FEW015 SCT020 BKN035 09/06 Q1006 NOSIG SW (220°) 13.8mph 9°C 6°C
15/01/19 22:00 EIDW 152200Z 20012KT 170V230 9999 FEW015 SCT020 BKN200 09/06 Q1006 NOSIG SSW (200°) 13.8mph 9°C 6°C
15/01/19 21:30 EIDW 152130Z 21010KT 170V240 9999 FEW015 BKN200 09/06 Q1007 WS RWY28 NOSIG SSW (210°) 11.5mph 9°C 6°C
15/01/19 21:00 EIDW 152100Z 21012KT 190V250 9999 -DZ FEW015 SCT032 BKN180 09/06 Q1007 WS RWY28 NOSIG -DZ SSW (210°) 13.8mph 9°C 6°C
15/01/19 20:30 EIDW 152030Z 22011KT 190V250 9999 FEW015 BKN035 09/06 Q1008 NOSIG SW (220°) 12.7mph 9°C 6°C
15/01/19 20:00 EIDW 152000Z 22013KT 200V270 9999 FEW016 BKN030 BKN180 09/06 Q1008 NOSIG SW (220°) 15.0mph 9°C 6°C
15/01/19 19:30 EIDW 151930Z 22010KT 190V260 9999 FEW016 BKN028 BKN180 09/06 Q1008 NOSIG SW (220°) 11.5mph 9°C 6°C
15/01/19 19:00 EIDW 151900Z 21011KT 190V250 9999 FEW014 BKN028 BKN180 09/06 Q1009 NOSIG SSW (210°) 12.7mph 9°C 6°C
15/01/19 18:30 EIDW 151830Z 22011KT 170V250 9999 FEW014 SCT026 BKN180 09/06 Q1009 NOSIG SW (220°) 12.7mph 9°C 6°C
15/01/19 18:00 EIDW 151800Z 21011KT 180V240 9999 FEW014 SCT026 BKN180 09/06 Q1009 NOSIG SSW (210°) 12.7mph 9°C 6°C
15/01/19 17:30 EIDW 151730Z 21011KT 170V240 9999 FEW014 BKN026 BKN200 09/06 Q1010 NOSIG SSW (210°) 12.7mph 9°C 6°C
15/01/19 17:00 EIDW 151700Z 22011KT 9999 FEW014 BKN026 BKN200 09/06 Q1010 NOSIG SW (220°) 12.7mph 9°C 6°C
15/01/19 16:30 EIDW 151630Z 22010KT 190V260 9999 FEW014 BKN029 BKN200 09/06 Q1011 NOSIG SW (220°) 11.5mph 9°C 6°C
15/01/19 16:00 EIDW 151600Z 22010KT 180V260 9999 FEW014 BKN029 09/06 Q1011 NOSIG SW (220°) 11.5mph 9°C 6°C
15/01/19 15:30 EIDW 151530Z 22011KT 190V260 9999 FEW012 BKN026 BKN200 09/06 Q1012 NOSIG SW (220°) 12.7mph 9°C 6°C
15/01/19 15:00 EIDW 151500Z 22013KT 180V250 9999 FEW012 BKN024 BKN200 09/06 Q1012 NOSIG SW (220°) 15.0mph 9°C 6°C
15/01/19 14:30 EIDW 151430Z 22013KT 200V260 9999 FEW012 BKN024 BKN200 09/06 Q1012 NOSIG SW (220°) 15.0mph 9°C 6°C
15/01/19 14:00 EIDW 151400Z 22011KT 190V260 9999 FEW012 BKN022 BKN200 09/06 Q1013 NOSIG SW (220°) 12.7mph 9°C 6°C
15/01/19 13:30 EIDW 151330Z 22011KT 190V260 9999 SCT012 BKN022 BKN200 09/06 Q1013 NOSIG SW (220°) 12.7mph 9°C 6°C
15/01/19 13:00 EIDW 151300Z 23010KT 190V260 9999 SCT012 BKN018 BKN190 09/06 Q1014 NOSIG SW (230°) 11.5mph 9°C 6°C
15/01/19 12:30 EIDW 151230Z 23009KT 190V270 9999 SCT012 SCT020 BKN190 08/06 Q1014 NOSIG SW (230°) 10.4mph 8°C 6°C
15/01/19 12:00 EIDW 151200Z 23010KT 200V280 9999 FEW016 BKN180 08/05 Q1015 NOSIG SW (230°) 11.5mph 8°C 5°C
15/01/19 11:30 EIDW 151130Z 23009KT 170V270 9999 FEW014 BKN180 08/05 Q1015 NOSIG SW (230°) 10.4mph 8°C 5°C
15/01/19 11:00 EIDW 151100Z 24008KT 190V270 9999 FEW010 SCT033 BKN190 07/05 Q1016 NOSIG WSW (240°) 9.2mph 7°C 5°C
15/01/19 10:30 EIDW 151030Z 23008KT 190V260 9999 FEW010 SCT035 BKN200 07/05 Q1016 NOSIG SW (230°) 9.2mph 7°C 5°C
15/01/19 10:00 EIDW 151000Z 23008KT 170V260 9999 FEW012 SCT036 BKN220 07/05 Q1016 NOSIG SW (230°) 9.2mph 7°C 5°C
15/01/19 09:30 EIDW 150930Z 23008KT 200V260 9999 FEW014 BKN037 07/05 Q1017 NOSIG SW (230°) 9.2mph 7°C 5°C
15/01/19 09:00 EIDW 150900Z 23008KT 170V270 9999 FEW014 BKN037 BKN042 08/05 Q1017 NOSIG SW (230°) 9.2mph 8°C 5°C
15/01/19 08:30 EIDW 150830Z 23007KT 200V280 9999 FEW014 BKN042 08/05 Q1017 NOSIG SW (230°) 8.1mph 8°C 5°C
15/01/19 08:00 EIDW 150800Z 24007KT 190V270 9999 FEW009 BKN042 08/06 Q1017 NOSIG WSW (240°) 8.1mph 8°C 6°C
15/01/19 07:30 EIDW 150730Z 24007KT 200V280 9999 FEW009 BKN045 07/06 Q1017 NOSIG WSW (240°) 8.1mph 7°C 6°C
15/01/19 07:00 EIDW 150700Z 24008KT 190V280 9999 FEW009 BKN045 07/06 Q1017 NOSIG WSW (240°) 9.2mph 7°C 6°C
15/01/19 06:30 EIDW 150630Z 23007KT 190V290 9999 FEW009 BKN040 07/06 Q1017 NOSIG SW (230°) 8.1mph 7°C 6°C
15/01/19 06:00 EIDW 150600Z 23008KT 190V290 9999 FEW009 BKN040 08/06 Q1017 NOSIG SW (230°) 9.2mph 8°C 6°C
15/01/19 05:30 EIDW 150530Z 23008KT 180V260 9999 FEW009 BKN045 07/06 Q1018 NOSIG SW (230°) 9.2mph 7°C 6°C
15/01/19 05:00 EIDW 150500Z 23008KT 200V260 9999 FEW009 BKN045 08/06 Q1018 NOSIG SW (230°) 9.2mph 8°C 6°C
15/01/19 04:30 EIDW 150430Z 24008KT 190V270 9999 FEW009 BKN050 08/06 Q1018 NOSIG WSW (240°) 9.2mph 8°C 6°C
15/01/19 04:00 EIDW 150400Z 24009KT 210V280 9999 FEW009 BKN050 08/06 Q1019 NOSIG WSW (240°) 10.4mph 8°C 6°C
15/01/19 03:30 EIDW 150330Z 24008KT 180V280 9999 FEW009 BKN040 08/06 Q1019 NOSIG WSW (240°) 9.2mph 8°C 6°C
15/01/19 03:00 EIDW 150300Z 24007KT 200V280 9999 FEW009 BKN040 08/06 Q1019 NOSIG WSW (240°) 8.1mph 8°C 6°C
15/01/19 02:30 EIDW 150230Z 23007KT 190V280 9999 FEW009 BKN040 08/06 Q1020 NOSIG SW (230°) 8.1mph 8°C 6°C
15/01/19 02:00 EIDW 150200Z 23007KT 190V280 9999 FEW006 BKN040 08/06 Q1020 NOSIG SW (230°) 8.1mph 8°C 6°C
15/01/19 01:30 EIDW 150130Z 24006KT 190V280 9999 FEW006 BKN040 08/06 Q1020 NOSIG WSW (240°) 6.9mph 8°C 6°C
15/01/19 01:00 EIDW 150100Z 24008KT 170V270 9999 FEW006 BKN040 08/07 Q1020 NOSIG WSW (240°) 9.2mph 8°C 7°C
15/01/19 00:30 EIDW 150030Z 23008KT 190V260 9999 FEW006 SCT012 BKN040 08/07 Q1020 NOSIG SW (230°) 9.2mph 8°C 7°C
15/01/19 00:00 EIDW 150000Z 24008KT 210V280 9999 FEW006 BKN012 BKN040 08/07 Q1021 NOSIG WSW (240°) 9.2mph 8°C 7°C
14/01/19 23:30 EIDW 142330Z 23008KT 190V270 9999 FEW006 SCT009 BKN040 07/07 Q1020 NOSIG SW (230°) 9.2mph 7°C 7°C
14/01/19 23:00 EIDW 142300Z 23009KT 200V280 9999 -DZ FEW006 BKN007 BKN019 08/07 Q1021 NOSIG -DZ SW (230°) 10.4mph 8°C 7°C
14/01/19 22:30 EIDW 142230Z 24007KT 190V270 9999 -RADZ FEW006 BKN009 BKN025 08/06 Q1021 NOSIG -RA -DZ WSW (240°) 8.1mph 8°C 6°C
14/01/19 22:00 EIDW 142200Z 24008KT 200V280 9999 FEW006 BKN009 BKN025 08/06 Q1021 NOSIG WSW (240°) 9.2mph 8°C 6°C
14/01/19 21:30 EIDW 142130Z 24009KT 200V260 9999 FEW006 BKN009 BKN025 08/06 Q1021 NOSIG WSW (240°) 10.4mph 8°C 6°C
14/01/19 21:00 EIDW 142100Z 23010KT 200V270 9000 -RADZ SCT006 SCT007 BKN009 07/06 Q1021 NOSIG -RA -DZ SW (230°) 11.5mph 7°C 6°C
14/01/19 20:30 EIDW 142030Z 23009KT 180V260 9000 -RADZ SCT008 BKN010 OVC016 07/06 Q1021 NOSIG -RA -DZ SW (230°) 10.4mph 7°C 6°C
14/01/19 20:00 EIDW 142000Z 22008KT 180V260 9999 -RADZ FEW009 SCT011 BKN020 07/05 Q1021 NOSIG -RA -DZ SW (220°) 9.2mph 7°C 5°C
14/01/19 19:30 EIDW 141930Z 23009KT 190V260 9999 -RADZ FEW010 SCT014 BKN029 07/05 Q1021 NOSIG -RA -DZ SW (230°) 10.4mph 7°C 5°C
14/01/19 19:00 EIDW 141900Z 23009KT 170V260 9999 FEW013 BKN031 07/05 Q1021 NOSIG SW (230°) 10.4mph 7°C 5°C
14/01/19 18:30 EIDW 141830Z 23009KT 9999 SCT015 BKN019 BKN033 07/05 Q1022 NOSIG SW (230°) 10.4mph 7°C 5°C
14/01/19 18:00 EIDW 141800Z 23008KT 190V260 8000 -RADZ BKN015 BKN017 BKN018 07/05 Q1022 NOSIG -RA -DZ SW (230°) 9.2mph 7°C 5°C
14/01/19 17:30 EIDW 141730Z 24008KT 200V270 6000 -RADZ FEW011 SCT014 BKN019 07/05 Q1022 NOSIG -RA -DZ WSW (240°) 9.2mph 7°C 5°C
14/01/19 17:00 EIDW 141700Z 23008KT 190V280 9999 -RADZ BKN017 BKN030 BKN040 07/05 Q1022 NOSIG -RA -DZ SW (230°) 9.2mph 7°C 5°C
14/01/19 16:30 EIDW 141630Z 24007KT 190V280 9999 FEW014 BKN020 BKN022 08/04 Q1022 NOSIG WSW (240°) 8.1mph 8°C 4°C
14/01/19 16:00 EIDW 141600Z 23007KT 200V260 9999 FEW016 BKN022 BKN027 08/03 Q1022 NOSIG SW (230°) 8.1mph 8°C 3°C
14/01/19 15:30 EIDW 141530Z 24006KT 200V280 9999 FEW018 SCT022 BKN027 08/03 Q1022 NOSIG WSW (240°) 6.9mph 8°C 3°C
14/01/19 15:00 EIDW 141500Z 26011KT 210V290 9999 FEW018 BKN029 BKN060 08/03 Q1023 NOSIG W (260°) 12.7mph 8°C 3°C
14/01/19 14:30 EIDW 141430Z 26008KT 230V300 9999 FEW018 BKN032 08/03 Q1023 NOSIG W (260°) 9.2mph 8°C 3°C
14/01/19 14:00 EIDW 141400Z 26011KT 9999 FEW018 BKN033 08/03 Q1023 NOSIG W (260°) 12.7mph 8°C 3°C
14/01/19 13:30 EIDW 141330Z 27011KT 240V300 9999 FEW018 BKN034 08/03 Q1023 NOSIG W (270°) 12.7mph 8°C 3°C
14/01/19 13:00 EIDW 141300Z 27012KT 9999 FEW018 BKN035 08/03 Q1023 NOSIG W (270°) 13.8mph 8°C 3°C
14/01/19 12:30 EIDW 141230Z 27013KT 9999 FEW018 BKN035 08/03 Q1023 NOSIG W (270°) 15.0mph 8°C 3°C
14/01/19 12:00 EIDW 141200Z 27011KT 9999 FEW018 BKN036 08/03 Q1023 NOSIG W (270°) 12.7mph 8°C 3°C
14/01/19 11:30 EIDW 141130Z 27012KT 9999 FEW018 BKN036 07/03 Q1023 NOSIG W (270°) 13.8mph 7°C 3°C
14/01/19 11:00 EIDW 141100Z 27011KT 9999 FEW018 BKN036 07/03 Q1023 NOSIG W (270°) 12.7mph 7°C 3°C
14/01/19 10:30 EIDW 141030Z 27011KT 9999 FEW018 BKN038 07/03 Q1023 NOSIG W (270°) 12.7mph 7°C 3°C
14/01/19 10:00 EIDW 141000Z 27010KT 9999 FEW018 BKN038 07/03 Q1023 NOSIG W (270°) 11.5mph 7°C 3°C
14/01/19 09:30 EIDW 140930Z 27011KT 9999 FEW018 BKN038 07/03 Q1023 NOSIG W (270°) 12.7mph 7°C 3°C
14/01/19 09:00 EIDW 140900Z 27011KT 9999 FEW018 BKN036 06/03 Q1023 NOSIG W (270°) 12.7mph 6°C 3°C
14/01/19 08:30 EIDW 140830Z 26011KT 9999 FEW016 BKN040 06/03 Q1023 NOSIG W (260°) 12.7mph 6°C 3°C
14/01/19 08:00 EIDW 140800Z 27013KT 9999 FEW016 BKN040 06/04 Q1023 NOSIG W (270°) 15.0mph 6°C 4°C
14/01/19 07:30 EIDW 140730Z 27013KT 9999 FEW016 BKN040 06/03 Q1022 NOSIG W (270°) 15.0mph 6°C 3°C
14/01/19 07:00 EIDW 140700Z 27012KT 9999 FEW016 BKN040 06/04 Q1022 NOSIG W (270°) 13.8mph 6°C 4°C
14/01/19 06:30 EIDW 140630Z 27013KT 9999 FEW016 BKN040 06/04 Q1022 NOSIG W (270°) 15.0mph 6°C 4°C
14/01/19 06:00 EIDW 140600Z 27011KT 9999 SCT016 BKN040 06/04 Q1022 NOSIG W (270°) 12.7mph 6°C 4°C
14/01/19 05:30 EIDW 140530Z 27010KT 9999 -DZ SCT016 BKN040 06/04 Q1022 NOSIG -DZ W (270°) 11.5mph 6°C 4°C
14/01/19 05:00 EIDW 140500Z 27011KT 9999 -DZ FEW016 BKN040 07/03 Q1022 NOSIG -DZ W (270°) 12.7mph 7°C 3°C
14/01/19 04:30 EIDW 140430Z 26009KT 230V290 9999 -DZ FEW016 BKN040 07/03 Q1022 NOSIG -DZ W (260°) 10.4mph 7°C 3°C
14/01/19 04:00 EIDW 140400Z 27009KT 9999 -DZ FEW016 BKN040 07/03 Q1022 NOSIG -DZ W (270°) 10.4mph 7°C 3°C
14/01/19 03:30 EIDW 140330Z 28011KT 9999 -DZ FEW016 BKN030 06/04 Q1021 NOSIG -DZ W (280°) 12.7mph 6°C 4°C
14/01/19 03:00 EIDW 140300Z 27012KT 9999 -DZ FEW016 BKN030 07/03 Q1021 NOSIG -DZ W (270°) 13.8mph 7°C 3°C
14/01/19 02:30 EIDW 140230Z 26010KT 9999 FEW016 BKN040 07/03 Q1021 NOSIG W (260°) 11.5mph 7°C 3°C
14/01/19 02:00 EIDW 140200Z 26009KT 9999 FEW016 BKN040 06/03 Q1021 NOSIG W (260°) 10.4mph 6°C 3°C
14/01/19 01:30 EIDW 140130Z 26012KT 9999 FEW016 SCT040 06/02 Q1020 NOSIG W (260°) 13.8mph 6°C 2°C
14/01/19 01:00 EIDW 140100Z 27013KT 9999 FEW016 SCT040 06/03 Q1020 NOSIG W (270°) 15.0mph 6°C 3°C
14/01/19 00:30 EIDW 140030Z 26010KT 9999 FEW016 06/03 Q1020 NOSIG W (260°) 11.5mph 6°C 3°C
14/01/19 00:00 EIDW 140000Z 28010KT 9999 FEW016 SCT030 05/02 Q1019 NOSIG W (280°) 11.5mph 5°C 2°C
13/01/19 23:30 EIDW 132330Z 28012KT 9999 FEW016 SCT030 06/03 Q1019 NOSIG W (280°) 13.8mph 6°C 3°C
13/01/19 23:00 EIDW 132300Z 29015KT 9999 FEW016 SCT030 07/03 Q1019 NOSIG WNW (290°) 17.3mph 7°C 3°C
13/01/19 22:30 EIDW 132230Z 28015KT 9999 FEW016 BKN040 07/03 Q1019 NOSIG W (280°) 17.3mph 7°C 3°C
13/01/19 22:00 EIDW 132200Z 28015KT 9999 FEW016 SCT040 07/03 Q1018 NOSIG W (280°) 17.3mph 7°C 3°C
13/01/19 21:30 EIDW 132130Z 30015KT 9999 FEW016 SCT036 BKN045 07/03 Q1018 NOSIG WNW (300°) 17.3mph 7°C 3°C
13/01/19 21:00 EIDW 132100Z 29017KT 9999 FEW016 SCT036 BKN045 08/03 Q1018 NOSIG WNW (290°) 19.6mph 8°C 3°C
13/01/19 20:30 EIDW 132030Z 28016KT 9999 FEW014 SCT035 BKN042 08/03 Q1018 NOSIG W (280°) 18.4mph 8°C 3°C
13/01/19 20:00 EIDW 132000Z 28015KT 9999 FEW017 SCT038 BKN044 07/03 Q1017 NOSIG W (280°) 17.3mph 7°C 3°C
13/01/19 19:30 EIDW 131930Z 28015KT 9999 FEW015 BKN043 BKN250 08/03 Q1017 NOSIG W (280°) 17.3mph 8°C 3°C
13/01/19 19:00 EIDW 131900Z 28018G28KT 9999 FEW015 SCT040 BKN046 07/02 Q1017 NOSIG W (280°) 20.7mph 32.2mph 7°C 2°C
13/01/19 18:30 EIDW 131830Z 28018G28KT 9999 FEW017 SCT044 BKN250 07/02 Q1017 NOSIG W (280°) 20.7mph 32.2mph 7°C 2°C
13/01/19 18:00 EIDW 131800Z 29025G36KT 9999 FEW017 SCT044 BKN250 08/02 Q1017 NOSIG WNW (290°) 28.8mph 41.4mph 8°C 2°C
13/01/19 17:30 EIDW 131730Z 29021G32KT 9999 FEW015 SCT036 BKN045 09/04 Q1016 NOSIG WNW (290°) 24.2mph 36.8mph 9°C 4°C
13/01/19 17:00 EIDW 131700Z 29023KT 9999 VCSH FEW015 FEW018 BKN039 09/04 Q1016 NOSIG VCSH WNW (290°) 26.5mph 9°C 4°C
13/01/19 16:30 EIDW 131630Z 29023KT 9999 VCSH FEW015 FEW018CB SCT029 09/05 Q1015 NOSIG VCSH WNW (290°) 26.5mph 9°C 5°C
13/01/19 16:00 EIDW 131600Z 28023G33KT 9999 VCSH FEW015 FEW018CB SCT032 09/05 Q1015 NOSIG VCSH W (280°) 26.5mph 38.0mph 9°C 5°C
13/01/19 15:30 EIDW 131530Z 29020G30KT 9999 -SHRA FEW018 SCT024 BKN035 09/06 Q1015 NOSIG -SHRA WNW (290°) 23.0mph 34.5mph 9°C 6°C
13/01/19 15:00 EIDW 131500Z 28025G35KT 9999 -SHRA FEW015 FEW018CB SCT025 10/06 Q1015 NOSIG -SHRA W (280°) 28.8mph 40.3mph 10°C 6°C
13/01/19 14:30 EIDW 131430Z 28024KT 9999 VCSH FEW014 FEW018CB SCT022 10/07 Q1015 NOSIG VCSH W (280°) 27.6mph 10°C 7°C
13/01/19 14:00 EIDW 131400Z 28024KT 9999 VCSH FEW010 FEW018CB SCT031 10/07 Q1015 NOSIG VCSH W (280°) 27.6mph 10°C 7°C
13/01/19 13:30 EIDW 131330Z 28025KT 9999 FEW014 SCT017 BKN029 11/08 Q1015 NOSIG W (280°) 28.8mph 11°C 8°C
13/01/19 13:00 EIDW 131300Z 29020KT 9999 -RADZ FEW009 SCT011 BKN016 11/09 Q1015 NOSIG -RA -DZ WNW (290°) 23.0mph 11°C 9°C
13/01/19 12:30 EIDW 131230Z 27020KT 9000 -RADZ FEW007 SCT009 BKN020 10/09 Q1015 NOSIG -RA -DZ W (270°) 23.0mph 10°C 9°C
13/01/19 12:00 EIDW 131200Z 27020KT 9999 FEW008 BKN018 10/09 Q1015 NOSIG W (270°) 23.0mph 10°C 9°C
13/01/19 11:30 EIDW 131130Z 26019G29KT 6000 -DZ FEW004 BKN006 BKN008 09/09 Q1015 TEMPO 4000 BKN005 -DZ W (260°) 21.9mph 33.4mph 9°C 9°C
13/01/19 11:00 EIDW 131100Z 25017G27KT 210V290 6000 -DZ FEW005 BKN007 BKN009 09/09 Q1015 TEMPO 4000 -DZ WSW (250°) 19.6mph 31.1mph 9°C 9°C
13/01/19 10:30 EIDW 131030Z 25017G28KT 210V280 9999 -DZ FEW005 BKN007 BKN011 09/08 Q1015 NOSIG -DZ WSW (250°) 19.6mph 32.2mph 9°C 8°C
13/01/19 10:00 EIDW 131000Z 26016KT 9999 FEW006 SCT008 BKN010 09/08 Q1016 NOSIG W (260°) 18.4mph 9°C 8°C
13/01/19 09:30 EIDW 130930Z 26017KT 9999 -DZ FEW005 BKN007 BKN009 09/08 Q1016 NOSIG -DZ W (260°) 19.6mph 9°C 8°C
13/01/19 09:00 EIDW 130900Z 26019KT 6000 -DZ FEW007 BKN009 BKN011 09/08 Q1016 TEMPO 4000 -DZ W (260°) 21.9mph 9°C 8°C
13/01/19 08:30 EIDW 130830Z 26017KT 7000 -DZ FEW007 BKN010 BKN014 09/08 Q1016 NOSIG -DZ W (260°) 19.6mph 9°C 8°C
13/01/19 08:00 EIDW 130800Z 26017KT 9999 FEW008 BKN010 09/07 Q1016 NOSIG W (260°) 19.6mph 9°C 7°C
13/01/19 07:30 EIDW 130730Z 26019KT 9999 BKN012 09/07 Q1016 NOSIG W (260°) 21.9mph 9°C 7°C
13/01/19 07:00 EIDW 130700Z 26019G31KT 200V280 9999 SCT012 BKN040 08/06 Q1016 NOSIG W (260°) 21.9mph 35.7mph 8°C 6°C
13/01/19 06:30 EIDW 130630Z 26019KT 9999 SCT012 BKN040 08/06 Q1017 NOSIG W (260°) 21.9mph 8°C 6°C
13/01/19 06:00 EIDW 130600Z 27019G30KT 9999 SCT012 SCT120 08/06 Q1017 NOSIG W (270°) 21.9mph 34.5mph 8°C 6°C
13/01/19 05:30 EIDW 130530Z 27021KT 9999 SCT012 BKN120 08/06 Q1017 NOSIG W (270°) 24.2mph 8°C 6°C
13/01/19 05:00 EIDW 130500Z 26021G31KT 9999 SCT012 BKN120 08/06 Q1017 NOSIG W (260°) 24.2mph 35.7mph 8°C 6°C
13/01/19 04:30 EIDW 130430Z 26019G29KT 9999 BKN012 BKN120 08/06 Q1018 NOSIG W (260°) 21.9mph 33.4mph 8°C 6°C
13/01/19 04:00 EIDW 130400Z 26020G33KT 9999 BKN012 BKN120 08/06 Q1018 NOSIG W (260°) 23.0mph 38.0mph 8°C 6°C
13/01/19 03:30 EIDW 130330Z 26018G29KT 9999 SCT014 BKN120 08/06 Q1018 NOSIG W (260°) 20.7mph 33.4mph 8°C 6°C